Time;durP1;ratioP1;P1;durP2;ratioP2;P2;SDS_P1;SDS_P2;PMS_P1;PMS_P2;Temp;Humidity;BMP_temperature;BMP_pressure;BME280_temperature;BME280_humidity;BME280_pressure;Samples;Min_cycle;Max_cycle;Signal;HPM_P1;HPM_P2
2022/12/08 00:01:27;;;;;;;4.97;1.30;;;;;;;-142.75;100.00;77887.41;4928133;28;20041;-66
2022/12/08 00:03:54;;;;;;;3.57;1.70;;;;;;;-142.75;100.00;77877.56;4933131;28;20906;-66
2022/12/08 00:09:31;;;;;;;3.23;1.70;;;;;;;-142.75;100.00;77877.56;4934625;28;20049;-66
2022/12/08 00:12:06;;;;;;;4.60;1.83;;;;;;;-142.75;100.00;77871.66;4932680;28;20061;-66
2022/12/08 00:14:43;;;;;;;5.40;2.07;;;;;;;-142.75;100.00;77869.69;4934537;28;20123;-66
2022/12/08 00:17:11;;;;;;;5.50;2.00;;;;;;;-142.75;100.00;77873.63;4929613;28;20543;-69
2022/12/08 00:19:40;;;;;;;2.90;1.60;;;;;;;-142.75;100.00;77877.56;4929124;28;20598;-67
2022/12/08 00:22:07;;;;;;;3.43;1.43;;;;;;;-142.75;100.00;77873.63;4932018;28;20429;-67
2022/12/08 00:24:35;;;;;;;12.70;1.80;;;;;;;-142.75;100.00;77881.50;4932110;28;20578;-66
2022/12/08 00:27:01;;;;;;;2.93;1.70;;;;;;;-142.75;100.00;77891.34;4938720;28;20115;-66
2022/12/08 00:29:27;;;;;;;2.55;1.80;;;;;;;-142.75;100.00;77883.47;4930061;28;20192;-67
2022/12/08 00:31:52;;;;;;;3.30;1.70;;;;;;;-142.75;100.00;77873.63;4936231;28;20026;-66
2022/12/08 00:34:18;;;;;;;4.68;2.03;;;;;;;-142.75;100.00;77869.69;4924949;28;20345;-67
2022/12/08 00:36:44;;;;;;;2.72;1.80;;;;;;;-142.75;100.00;77873.63;4922827;28;20496;-66
2022/12/08 00:39:11;;;;;;;3.20;1.80;;;;;;;-142.75;100.00;77877.56;4935846;28;20060;-66
2022/12/08 00:44:21;;;;;;;6.50;1.70;;;;;;;-142.75;100.00;77875.59;4941365;28;20637;-67
2022/12/08 00:46:47;;;;;;;4.30;1.80;;;;;;;-142.75;100.00;77873.63;4943763;28;20022;-67
2022/12/08 00:49:13;;;;;;;;;;;;;;;-142.75;100.00;77869.69;4943754;28;20200;-66
2022/12/08 00:51:39;;;;;;;8.60;1.50;;;;;;;-142.75;100.00;77875.59;4934211;28;20310;-66
2022/12/08 00:54:05;;;;;;;3.38;1.50;;;;;;;-142.75;100.00;77873.63;4925692;28;20317;-66
2022/12/08 00:56:30;;;;;;;;;;;;;;;-142.75;100.00;77871.66;4929058;28;20037;-67
2022/12/08 00:58:56;;;;;;;2.53;1.23;;;;;;;-142.75;100.00;77873.63;4937712;28;20239;-66
2022/12/08 01:01:21;;;;;;;7.22;1.52;;;;;;;-142.75;100.00;77867.72;4938130;28;20353;-67
2022/12/08 01:03:47;;;;;;;1.90;1.10;;;;;;;-142.75;100.00;77867.72;4933152;28;20386;-67
2022/12/08 01:06:13;;;;;;;4.30;1.15;;;;;;;-142.75;100.00;77877.56;4939451;28;20324;-67
2022/12/08 01:08:39;;;;;;;1.52;0.82;;;;;;;-142.75;100.00;77869.69;4936445;28;20421;-67
2022/12/08 01:11:07;;;;;;;3.47;0.90;;;;;;;-142.75;100.00;77871.66;4936292;28;20077;-66
2022/12/08 01:13:33;;;;;;;5.13;1.00;;;;;;;-142.75;100.00;77855.91;4936074;28;20022;-67
2022/12/08 01:15:58;;;;;;;;;;;;;;;-142.75;100.00;77836.22;4935441;28;20018;-67
2022/12/08 01:18:26;;;;;;;3.33;0.80;;;;;;;-142.75;100.00;77834.25;4936020;28;20211;-67
2022/12/08 01:20:51;;;;;;;5.13;0.97;;;;;;;-142.75;100.00;77830.31;4927490;28;20128;-67
2022/12/08 01:23:17;;;;;;;1.95;0.98;;;;;;;-142.75;100.00;77826.38;4933544;28;20318;-67
2022/12/08 01:25:42;;;;;;;1.00;0.55;;;;;;;-142.75;100.00;77826.38;4940295;28;20355;-67
2022/12/08 01:28:08;;;;;;;1.42;0.70;;;;;;;-142.75;100.00;77836.22;4939866;28;20369;-67
2022/12/08 01:30:37;;;;;;;5.18;0.88;;;;;;;-142.75;100.00;77826.38;4941440;28;20352;-67
2022/12/08 01:33:02;;;;;;;1.63;0.53;;;;;;;-142.75;100.00;77822.44;4926729;28;20030;-67
2022/12/08 01:35:28;;;;;;;1.80;0.70;;;;;;;-142.75;100.00;77844.09;4942267;28;20247;-67
2022/12/08 01:37:53;;;;;;;1.60;0.70;;;;;;;-142.75;100.00;77842.13;4931782;28;20383;-67
2022/12/08 01:40:19;;;;;;;1.98;0.90;;;;;;;-142.75;100.00;77822.44;4930401;28;20396;-67
2022/12/08 01:42:44;;;;;;;2.85;1.30;;;;;;;-142.75;100.00;77808.66;4934604;28;20564;-67
2022/12/08 01:45:20;;;;;;;2.50;0.80;;;;;;;-142.75;100.00;77800.78;4930321;28;20298;-67
2022/12/08 01:47:50;;;;;;;2.13;0.90;;;;;;;-142.75;100.00;77800.78;4925887;28;20084;-67
2022/12/08 01:50:18;;;;;;;4.30;1.03;;;;;;;-142.75;100.00;77788.97;4929846;28;20085;-67
2022/12/08 01:52:53;;;;;;;2.17;0.90;;;;;;;-142.75;100.00;77787.00;4934349;28;20045;-67
2022/12/08 01:55:27;;;;;;;1.97;1.00;;;;;;;-142.75;100.00;77775.19;4933264;28;20025;-67
2022/12/08 01:57:57;;;;;;;1.93;1.20;;;;;;;-142.75;100.00;77773.22;4915106;28;20548;-67
2022/12/08 02:00:23;;;;;;;4.73;0.80;;;;;;;-142.75;100.00;77771.25;4930047;28;20058;-68
2022/12/08 02:03:05;;;;;;;2.40;1.45;;;;;;;-142.75;100.00;77749.59;4924207;28;20315;-67
2022/12/08 02:05:37;;;;;;;8.50;0.80;;;;;;;-142.75;100.00;77753.53;4933412;28;20555;-66
2022/12/08 02:08:07;;;;;;;1.00;0.50;;;;;;;-142.75;100.00;77769.28;4919372;28;20052;-67
2022/12/08 02:10:35;;;;;;;2.07;0.97;;;;;;;-142.75;100.00;77767.31;4929915;28;20025;-67
2022/12/08 02:13:02;;;;;;;4.77;0.60;;;;;;;-142.75;100.00;77781.09;4934216;28;20030;-67
2022/12/08 02:16:05;;;;;;;2.83;0.40;;;;;;;-142.75;100.00;77765.34;4929694;28;20587;-67
2022/12/08 02:18:51;;;;;;;4.87;0.60;;;;;;;-142.75;100.00;77765.34;4940371;28;20038;-67
2022/12/08 02:21:33;;;;;;;2.83;0.77;;;;;;;-142.75;100.00;77773.22;4928136;28;20564;-67
2022/12/08 02:24:07;;;;;;;3.10;0.60;;;;;;;-142.75;100.00;77775.19;4920750;28;20084;-67
2022/12/08 02:26:58;;;;;;;2.87;1.03;;;;;;;-142.75;100.00;77777.16;4922134;28;20037;-67
2022/12/08 02:29:49;;;;;;;5.37;1.13;;;;;;;-142.75;100.00;77773.22;4924221;28;20034;-67
2022/12/08 02:32:52;;;;;;;5.37;1.00;;;;;;;-142.75;100.00;77785.03;4928997;28;20041;-67
2022/12/08 02:35:38;;;;;;;1.20;0.50;;;;;;;-142.75;100.00;77794.88;4914976;28;20132;-67
2022/12/08 02:38:09;;;;;;;1.77;0.73;;;;;;;-142.75;100.00;77816.53;4930648;28;20022;-67
2022/12/08 02:40:56;;;;;;;5.70;0.53;;;;;;;-142.75;100.00;77792.91;4934046;28;20025;-68
2022/12/08 02:43:43;;;;;;;2.75;0.55;;;;;;;-142.75;100.00;77775.19;4918650;28;20641;-67
2022/12/08 02:46:15;;;;;;;0.85;0.45;;;;;;;-142.75;100.00;77779.13;4931315;28;20164;-67
2022/12/08 02:48:41;;;;;;;2.27;0.50;;;;;;;-142.75;100.00;77794.88;4940594;28;20044;-67
2022/12/08 02:51:06;;;;;;;5.05;0.60;;;;;;;-142.75;100.00;77787.00;4931297;28;20018;-67
2022/12/08 02:53:35;;;;;;;3.03;0.65;;;;;;;-142.75;100.00;77775.19;4923446;28;20336;-67
2022/12/08 02:56:25;;;;;;;3.70;0.70;;;;;;;-142.75;100.00;77769.28;4926770;28;20049;-67
2022/12/08 02:59:20;;;;;;;2.20;0.67;;;;;;;-142.75;100.00;77751.56;4925676;28;20060;-67
2022/12/08 03:01:55;;;;;;;3.47;0.40;;;;;;;-142.75;100.00;77747.63;4932206;28;20029;-68
2022/12/08 03:04:45;;;;;;;3.60;0.80;;;;;;;-142.75;100.00;77729.88;4936356;28;20029;-67
2022/12/08 03:07:21;;;;;;;1.93;0.43;;;;;;;-142.75;100.00;77731.88;4916684;28;20018;-68
2022/12/08 03:09:54;;;;;;;2.28;0.35;;;;;;;-142.75;100.00;77727.94;4924839;28;20133;-67
2022/12/08 03:12:27;;;;;;;1.50;0.47;;;;;;;-142.75;100.00;77735.81;4924749;28;20038;-67
2022/12/08 03:14:57;;;;;;;3.60;0.40;;;;;;;-142.75;100.00;77716.09;4934570;28;20606;-67
2022/12/08 03:17:26;;;;;;;4.50;0.70;;;;;;;-142.75;100.00;77720.03;4929069;28;20543;-67
2022/12/08 03:19:53;;;;;;;2.17;0.40;;;;;;;-142.75;100.00;77704.28;4932067;28;20034;-67
2022/12/08 03:22:23;;;;;;;0.80;0.40;;;;;;;-142.75;100.00;77700.34;4933038;28;20060;-67
2022/12/08 03:24:49;;;;;;;0.97;0.50;;;;;;;-142.75;100.00;77704.28;4924059;28;20065;-67
2022/12/08 03:27:20;;;;;;;1.23;0.30;;;;;;;-142.75;100.00;77712.16;4931925;28;20025;-67
2022/12/08 03:29:47;;;;;;;1.70;0.60;;;;;;;-142.75;100.00;77700.34;4921822;28;20034;-66
2022/12/08 03:32:18;;;;;;;0.53;0.30;;;;;;;-142.75;100.00;77704.28;4929158;28;20105;-67
2022/12/08 03:34:46;;;;;;;1.77;0.50;;;;;;;-142.75;100.00;77706.25;4921854;28;20841;-66
2022/12/08 03:37:12;;;;;;;0.73;0.37;;;;;;;-142.75;100.00;77706.25;4918742;28;20031;-67
2022/12/08 03:39:39;;;;;;;1.48;0.35;;;;;;;-142.75;100.00;77702.31;4925344;28;20056;-67
2022/12/08 03:42:04;;;;;;;3.05;0.43;;;;;;;-142.75;100.00;77698.38;4925553;28;20026;-67
2022/12/08 03:44:30;;;;;;;5.20;0.50;;;;;;;-142.75;100.00;77704.28;4917060;28;20348;-67
2022/12/08 03:46:55;;;;;;;3.22;0.60;;;;;;;-142.75;100.00;77690.50;4926996;28;20383;-67
2022/12/08 03:49:21;;;;;;;2.65;0.40;;;;;;;-142.75;100.00;77698.38;4919088;28;20332;-67
2022/12/08 03:51:46;;;;;;;5.00;0.40;;;;;;;-142.75;100.00;77692.47;4918019;28;20430;-67
2022/12/08 03:54:12;;;;;;;3.25;0.50;;;;;;;-142.75;100.00;77702.31;4933575;28;20357;-67
2022/12/08 03:56:38;;;;;;;6.10;0.52;;;;;;;-142.75;100.00;77690.50;4929320;28;20516;-67
2022/12/08 03:59:04;;;;;;;1.25;0.40;;;;;;;-142.75;100.00;77680.66;4927167;28;20340;-67
2022/12/08 04:01:30;;;;;;;0.60;0.20;;;;;;;-142.75;100.00;77690.50;4926545;28;20061;-67
2022/12/08 04:03:56;;;;;;;2.70;0.38;;;;;;;-142.75;100.00;77696.41;4933317;28;20325;-66
2022/12/08 04:06:22;;;;;;;1.02;0.30;;;;;;;-142.75;100.00;77690.50;4930415;28;20370;-67
2022/12/08 04:08:48;;;;;;;;;;;;;;;-142.75;100.00;77676.72;4927865;28;20140;-67
2022/12/08 04:11:14;;;;;;;2.43;0.50;;;;;;;-142.75;100.00;77676.72;4951931;28;20192;-67
2022/12/08 04:13:40;;;;;;;2.25;0.40;;;;;;;-142.75;100.00;77672.78;4929942;28;20321;-66
2022/12/08 04:16:06;;;;;;;;;;;;;;;-142.75;100.00;77666.88;4924775;28;20124;-67
2022/12/08 04:18:33;;;;;;;5.87;0.50;;;;;;;-142.75;100.00;77674.75;4932648;28;19917;-67
2022/12/08 04:20:59;;;;;;;2.10;0.43;;;;;;;-142.75;100.00;77672.78;4930348;28;20142;-67
2022/12/08 04:23:24;;;;;;;1.83;0.50;;;;;;;-142.75;100.00;77672.78;4937121;28;20336;-67
2022/12/08 04:25:51;;;;;;;2.45;0.50;;;;;;;-142.75;100.00;77686.56;4931867;28;20432;-67
2022/12/08 04:28:16;;;;;;;;;;;;;;;-142.75;100.00;77710.19;4928053;28;20038;-67
2022/12/08 04:30:41;;;;;;;0.40;0.27;;;;;;;-142.75;100.00;77712.16;4922323;28;20302;-66
2022/12/08 04:33:07;;;;;;;1.58;0.50;;;;;;;-142.75;100.00;77753.53;4932018;28;20434;-67
2022/12/08 04:35:32;;;;;;;1.52;0.40;;;;;;;-142.75;100.00;77785.03;4929534;28;20380;-67
2022/12/08 04:37:58;;;;;;;2.05;0.47;;;;;;;-142.75;100.00;77806.69;4930112;28;20484;-67
2022/12/08 04:40:24;;;;;;;2.13;0.35;;;;;;;-142.75;100.00;77816.53;4928650;28;20022;-66
2022/12/08 04:42:50;;;;;;;1.35;0.35;;;;;;;-142.75;100.00;77814.56;4936636;28;20313;-66
2022/12/08 04:45:16;;;;;;;2.05;0.45;;;;;;;-142.75;100.00;77828.34;4940753;28;20058;-66
2022/12/08 04:47:41;;;;;;;0.55;0.32;;;;;;;-142.75;100.00;77822.44;4927623;28;20427;-67
2022/12/08 04:50:07;;;;;;;3.53;0.50;;;;;;;-142.75;100.00;77818.50;4911187;28;20353;-66
2022/12/08 04:52:33;;;;;;;0.88;0.40;;;;;;;-142.75;100.00;77814.56;4910376;28;20023;-66
2022/12/08 04:54:59;;;;;;;0.63;0.38;;;;;;;-142.75;100.00;77816.53;4933926;28;20101;-66
2022/12/08 04:57:24;;;;;;;0.57;0.30;;;;;;;-142.75;100.00;77808.66;4908683;28;20248;-66
2022/12/08 04:59:50;;;;;;;0.95;0.32;;;;;;;-142.75;100.00;77790.94;4940773;28;20336;-66
2022/12/08 05:02:16;;;;;;;3.20;0.70;;;;;;;-142.75;100.00;77777.16;4929914;28;20033;-66
2022/12/08 05:04:41;;;;;;;1.38;0.30;;;;;;;-142.75;100.00;77769.28;4918814;28;20671;-67
2022/12/08 05:07:07;;;;;;;5.13;0.63;;;;;;;-142.75;100.00;77751.56;4920040;28;20439;-66
2022/12/08 05:09:33;;;;;;;0.68;0.30;;;;;;;-142.75;100.00;77747.63;4932751;28;20129;-67
2022/12/08 05:11:58;;;;;;;0.75;0.40;;;;;;;-142.75;100.00;77739.75;4938254;28;20352;-67
2022/12/08 05:14:24;;;;;;;1.65;0.40;;;;;;;-142.75;100.00;77723.97;4921560;28;20334;-66
2022/12/08 05:16:49;;;;;;;4.07;0.40;;;;;;;-142.75;100.00;77727.94;4929047;28;20440;-66
2022/12/08 05:19:15;;;;;;;1.75;0.50;;;;;;;-142.75;100.00;77723.97;4927325;28;20171;-67
2022/12/08 05:21:41;;;;;;;0.65;0.35;;;;;;;-142.75;100.00;77723.97;4910240;28;20037;-66
2022/12/08 05:24:07;;;;;;;2.85;0.40;;;;;;;-142.75;100.00;77720.03;4930583;28;20344;-66
2022/12/08 05:26:32;;;;;;;1.65;0.38;;;;;;;-142.75;100.00;77716.09;4910171;28;20400;-66
2022/12/08 05:28:58;;;;;;;7.53;0.40;;;;;;;-142.75;100.00;77710.19;4922345;28;20412;-66
2022/12/08 05:31:23;;;;;;;1.52;0.38;;;;;;;-142.75;100.00;77712.16;4940304;28;20225;-66
2022/12/08 05:33:50;;;;;;;2.97;0.40;;;;;;;-142.75;100.00;77710.19;4918781;28;20334;-67
2022/12/08 05:36:16;;;;;;;1.77;0.53;;;;;;;-142.75;100.00;77720.03;4929067;28;20026;-67
2022/12/08 05:38:42;;;;;;;1.97;0.40;;;;;;;-142.75;100.00;77704.28;4914198;28;20060;-66
2022/12/08 05:41:11;;;;;;;0.65;0.28;;;;;;;-142.75;100.00;77694.44;4923664;28;20153;-66
2022/12/08 05:43:37;;;;;;;0.83;0.40;;;;;;;-142.75;100.00;77702.31;4936321;28;20030;-67
2022/12/08 05:46:03;;;;;;;2.35;0.40;;;;;;;-142.75;100.00;77700.34;4910281;28;20365;-67
2022/12/08 05:48:28;;;;;;;0.45;0.28;;;;;;;-142.75;100.00;77708.22;4924159;28;20473;-67
2022/12/08 05:50:54;;;;;;;2.50;0.40;;;;;;;-142.75;100.00;77696.41;4920041;28;20337;-66
2022/12/08 05:53:20;;;;;;;1.80;0.52;;;;;;;-142.75;100.00;77708.22;4921038;28;20376;-67
2022/12/08 05:55:46;;;;;;;0.82;0.30;;;;;;;-142.75;100.00;77727.94;4913268;28;20235;-66
2022/12/08 05:58:17;;;;;;;2.50;0.50;;;;;;;-142.75;100.00;77729.88;4930642;28;20030;-66
2022/12/08 06:00:43;;;;;;;2.00;0.37;;;;;;;-142.75;100.00;77725.97;4943083;28;20547;-67
2022/12/08 06:03:12;;;;;;;3.10;0.53;;;;;;;-142.75;100.00;77731.88;4932240;28;20132;-67
2022/12/08 06:05:39;;;;;;;1.70;0.50;;;;;;;-142.75;100.00;77741.72;4921519;28;20030;-67
2022/12/08 06:08:05;;;;;;;3.20;0.30;;;;;;;-142.75;100.00;77755.50;4926841;28;20520;-66
2022/12/08 06:10:30;;;;;;;3.85;0.63;;;;;;;-142.75;100.00;77747.63;4934043;28;20204;-67
2022/12/08 06:12:56;;;;;;;2.35;0.80;;;;;;;-142.75;100.00;77753.53;4916077;28;20319;-67
2022/12/08 06:15:21;;;;;;;0.85;0.40;;;;;;;-142.75;100.00;77755.50;4935886;28;20309;-67
2022/12/08 06:17:47;;;;;;;0.52;0.20;;;;;;;-142.75;100.00;77759.44;4918932;28;20420;-67
2022/12/08 06:20:12;;;;;;;2.30;0.30;;;;;;;-142.75;100.00;77787.00;4932705;28;20540;-67
2022/12/08 06:22:38;;;;;;;1.77;0.25;;;;;;;-142.75;100.00;77802.75;4918041;28;20085;-66
2022/12/08 06:25:04;;;;;;;0.20;0.20;;;;;;;-142.75;100.00;77812.59;4935224;28;20391;-66
2022/12/08 06:27:29;;;;;;;;;;;;;;;-142.75;100.00;77840.16;4929963;28;20630;-67
2022/12/08 06:29:55;;;;;;;0.60;0.20;;;;;;;-142.75;100.00;77861.81;4919901;28;19925;-66
2022/12/08 06:32:21;;;;;;;1.08;0.88;;;;;;;-142.75;100.00;77901.19;4930316;28;20438;-66
2022/12/08 06:34:46;;;;;;;0.65;0.30;;;;;;;-142.75;100.00;77907.09;4924502;28;20050;-67
2022/12/08 06:37:12;;;;;;;0.85;0.43;;;;;;;-142.75;100.00;77907.09;4933322;28;20502;-67
2022/12/08 06:39:37;;;;;;;2.05;0.25;;;;;;;-142.75;100.00;77893.31;4935192;28;20347;-67
2022/12/08 06:44:47;;;;;;;0.80;0.20;;;;;;;-142.75;100.00;77869.69;4919023;28;20475;-66
2022/12/08 06:47:13;;;;;;;0.55;0.20;;;;;;;-142.75;100.00;77871.66;4923280;28;20034;-67
2022/12/08 06:49:38;;;;;;;0.35;0.30;;;;;;;-142.75;100.00;77869.69;4916738;28;20330;-67
2022/12/08 06:52:04;;;;;;;1.45;0.30;;;;;;;-142.75;100.00;77863.78;4924267;28;20358;-67
2022/12/08 06:54:29;;;;;;;1.55;0.30;;;;;;;-142.75;100.00;77867.72;4929086;28;20439;-66
2022/12/08 06:56:55;;;;;;;1.08;0.50;;;;;;;-142.75;100.00;77857.88;4926443;28;20069;-67
2022/12/08 06:59:20;;;;;;;0.47;0.20;;;;;;;-142.75;100.00;77848.03;4926663;28;20310;-67
2022/12/08 07:01:46;;;;;;;0.55;0.35;;;;;;;-142.75;100.00;77842.13;4924350;28;20447;-66
2022/12/08 07:04:12;;;;;;;0.85;0.30;;;;;;;-142.75;100.00;77844.09;4937033;28;20351;-66
2022/12/08 07:06:37;;;;;;;1.65;0.35;;;;;;;-142.75;100.00;77820.47;4942944;28;20022;-67
2022/12/08 07:09:03;;;;;;;1.92;0.30;;;;;;;-142.75;100.00;77818.50;4924158;28;20479;-67
2022/12/08 07:11:28;;;;;;;4.18;0.50;;;;;;;-142.75;100.00;77818.50;4925255;28;20343;-66
2022/12/08 07:13:57;;;;;;;0.73;0.73;;;;;;;-142.75;100.00;77806.69;4928572;28;20104;-66
2022/12/08 07:16:23;;;;;;;1.37;0.57;;;;;;;-142.75;100.00;77814.56;4943025;28;20030;-67
2022/12/08 07:18:48;;;;;;;2.25;0.90;;;;;;;-142.75;100.00;77802.75;4933244;28;20538;-67
2022/12/08 07:21:15;;;;;;;1.08;0.43;;;;;;;-142.75;100.00;77802.75;4941129;28;20514;-66
2022/12/08 07:23:41;;;;;;;1.37;0.67;;;;;;;-142.75;100.00;77806.69;4926198;28;20034;-67
2022/12/08 07:26:10;;;;;;;1.37;0.60;;;;;;;-142.75;100.00;77808.66;4938831;28;20030;-67
2022/12/08 07:28:36;;;;;;;1.77;0.60;;;;;;;-142.75;100.00;77794.88;4941090;28;20583;-65
2022/12/08 07:31:03;;;;;;;2.33;0.60;;;;;;;-142.75;100.00;77775.19;4935502;28;20059;-67
2022/12/08 07:33:30;;;;;;;2.07;0.90;;;;;;;-142.75;100.00;77779.13;4934993;28;20073;-67
2022/12/08 07:35:57;;;;;;;1.30;0.73;;;;;;;-142.75;100.00;77773.22;4936048;28;20139;-67
2022/12/08 07:38:23;;;;;;;3.93;1.03;;;;;;;-142.75;100.00;77771.25;4925649;28;20034;-67
2022/12/08 07:40:51;;;;;;;7.63;1.03;;;;;;;-142.75;100.00;77777.16;4939581;28;20563;-66
2022/12/08 07:43:16;;;;;;;2.97;0.90;;;;;;;-142.75;100.00;77767.31;4939904;28;20084;-67
2022/12/08 07:45:42;;;;;;;4.50;0.75;;;;;;;-142.75;100.00;77767.31;4927142;28;20531;-66
2022/12/08 07:48:08;;;;;;;1.30;0.63;;;;;;;-142.75;100.00;77771.25;4927178;28;20375;-66
2022/12/08 07:50:33;;;;;;;2.38;0.75;;;;;;;-142.75;100.00;77767.31;4933892;28;20300;-67
2022/12/08 07:52:59;;;;;;;5.85;0.98;;;;;;;-142.75;100.00;77775.19;4934462;28;20306;-67
2022/12/08 07:55:25;;;;;;;1.10;0.63;;;;;;;-142.75;100.00;77763.38;4936635;28;20192;-66
2022/12/08 07:57:50;;;;;;;2.85;0.90;;;;;;;-142.75;100.00;77767.31;4935250;28;20434;-66
2022/12/08 08:00:17;;;;;;;1.60;0.50;;;;;;;-142.75;100.00;77755.50;4938423;28;20212;-65
2022/12/08 08:02:43;;;;;;;2.13;0.70;;;;;;;-142.75;100.00;77747.63;4947668;28;20034;-64
2022/12/08 08:05:09;;;;;;;2.33;0.90;;;;;;;-142.75;100.00;77745.66;4937726;28;20321;-67
2022/12/08 08:07:35;;;;;;;2.03;0.90;;;;;;;-142.75;100.00;77763.38;4945972;28;20022;-67
2022/12/08 08:10:01;;;;;;;2.97;0.70;;;;;;;-142.75;100.00;77743.69;4929609;28;20026;-66
2022/12/08 08:12:27;;;;;;;4.30;0.63;;;;;;;-142.75;100.00;77745.66;4936942;28;20324;-66
2022/12/08 08:14:52;;;;;;;2.97;0.80;;;;;;;-142.75;100.00;77745.66;4940063;28;20378;-67
2022/12/08 08:17:18;;;;;;;1.60;0.70;;;;;;;-142.75;100.00;77725.97;4944330;28;20380;-67
2022/12/08 08:19:45;;;;;;;4.75;0.60;;;;;;;-142.75;100.00;77727.94;4932884;28;20329;-66
2022/12/08 08:22:10;;;;;;;2.37;0.57;;;;;;;-142.75;100.00;77720.03;4931329;28;20573;-66
2022/12/08 08:24:36;;;;;;;1.40;0.82;;;;;;;-142.75;100.00;77725.97;4947077;28;20022;-66
2022/12/08 08:27:01;;;;;;;3.47;0.43;;;;;;;-142.75;100.00;77716.09;4981722;28;20081;-65
2022/12/08 08:29:27;;;;;;;1.58;0.50;;;;;;;-142.75;100.00;77720.03;4972573;28;20929;-65
2022/12/08 08:31:52;;;;;;;1.45;0.65;;;;;;;-142.75;100.00;77727.94;4987211;28;20116;-66
2022/12/08 08:34:17;;;;;;;1.17;0.47;;;;;;;-142.75;100.00;77716.09;4985921;28;20550;-66
2022/12/08 08:36:43;;;;;;;1.85;0.60;;;;;;;-142.75;100.00;77723.97;4983991;28;20026;-64
2022/12/08 08:39:08;;;;;;;1.67;0.57;;;;;;;-142.75;100.00;77727.94;4986737;28;20026;-67
2022/12/08 08:41:34;;;;;;;1.67;0.68;;;;;;;-142.75;100.00;77720.03;4986133;28;20609;-65
2022/12/08 08:43:59;;;;;;;2.05;0.70;;;;;;;-142.75;100.00;77723.97;4987123;28;20133;-68
2022/12/08 08:46:25;;;;;;;1.42;0.70;;;;;;;-142.75;100.00;77729.88;4985304;28;20038;-66
2022/12/08 08:48:50;;;;;;;4.35;0.63;;;;;;;-142.75;100.00;77716.09;4986739;28;20026;-66
2022/12/08 08:51:15;;;;;;;2.53;0.85;;;;;;;-142.75;100.00;77737.78;4985263;28;20034;-64
2022/12/08 08:53:41;;;;;;;1.83;0.65;;;;;;;-142.75;100.00;77743.69;4982741;28;20042;-64
2022/12/08 08:56:09;;;;;;;1.50;0.65;;;;;;;-142.75;100.00;77749.59;4989840;28;20027;-64
2022/12/08 08:58:34;;;;;;;1.67;0.70;;;;;;;-142.75;100.00;77747.63;4971118;28;20349;-66
2022/12/08 09:01:00;;;;;;;3.08;0.70;;;;;;;-142.75;100.00;77755.50;4935223;28;20808;-66
2022/12/08 09:03:25;;;;;;;2.67;0.95;;;;;;;-142.75;100.00;77747.63;4932316;28;20272;-66
2022/12/08 09:05:51;;;;;;;2.72;0.80;;;;;;;-142.75;100.00;77759.44;4929418;28;20340;-66
2022/12/08 09:08:17;;;;;;;2.65;0.95;;;;;;;-142.75;100.00;77747.63;4937845;28;20192;-66
2022/12/08 09:10:42;;;;;;;2.10;0.77;;;;;;;-142.75;100.00;77773.22;4929566;28;20030;-66
2022/12/08 09:13:08;;;;;;;1.60;0.80;;;;;;;-142.75;100.00;77773.22;4930051;28;20398;-66
2022/12/08 09:15:33;;;;;;;1.48;0.73;;;;;;;-142.75;100.00;77777.16;4929198;28;20326;-66
2022/12/08 09:17:59;;;;;;;2.33;0.85;;;;;;;-142.75;100.00;77777.16;4931567;28;20372;-66
2022/12/08 09:20:24;;;;;;;0.82;0.52;;;;;;;-142.75;100.00;77771.25;4928804;28;20436;-66
2022/12/08 09:22:50;;;;;;;2.15;0.95;;;;;;;-142.75;100.00;77787.00;4926800;28;20057;-67
2022/12/08 09:25:16;;;;;;;2.00;0.90;;;;;;;-142.75;100.00;77779.13;4904724;28;20372;-67
2022/12/08 09:27:41;;;;;;;3.22;0.80;;;;;;;-142.75;100.00;77779.13;4929458;28;20287;-66
2022/12/08 09:30:07;;;;;;;3.67;0.90;;;;;;;-142.75;100.00;77785.03;4934880;28;20386;-67
2022/12/08 09:32:33;;;;;;;;;;;;;;;-142.75;100.00;77800.78;4923424;28;20686;-67
2022/12/08 09:34:58;;;;;;;1.30;0.60;;;;;;;-142.75;100.00;77808.66;4934863;28;19925;-66
2022/12/08 09:37:24;;;;;;;1.52;0.82;;;;;;;-142.75;100.00;77818.50;4927085;28;20019;-66
2022/12/08 09:39:49;;;;;;;1.73;0.80;;;;;;;-142.75;100.00;77792.91;4925772;28;20056;-65
2022/12/08 09:42:24;;;;;;;2.08;0.77;;;;;;;-142.75;100.00;77810.63;4927914;28;20326;-66
2022/12/08 09:45:10;;;;;;;1.00;0.80;;;;;;;-142.75;100.00;77800.78;4931065;28;20559;-65
2022/12/08 09:47:44;;;;;;;1.70;0.80;;;;;;;-142.75;100.00;77779.13;4925575;28;20112;-66
2022/12/08 09:50:33;;;;;;;1.77;0.90;;;;;;;-142.75;100.00;77787.00;4934833;28;20642;-66
2022/12/08 09:53:06;;;;;;;3.60;1.43;;;;;;;-142.75;100.00;77771.25;4929524;28;20161;-67
2022/12/08 09:55:47;;;;;;;2.30;1.20;;;;;;;-142.75;100.00;77767.31;4930139;28;20100;-66
2022/12/08 09:58:35;;;;;;;3.07;1.10;;;;;;;-142.75;100.00;77761.41;4928039;28;20039;-66
2022/12/08 10:01:01;;;;;;;2.83;1.10;;;;;;;-142.75;100.00;77773.22;4927202;28;20138;-66
2022/12/08 10:03:29;;;;;;;1.90;1.15;;;;;;;-142.75;100.00;77790.94;4930600;28;20034;-65
2022/12/08 10:06:10;;;;;;;6.97;3.33;;;;;;;-142.75;100.00;77788.97;4920373;28;20034;-67
2022/12/08 10:08:58;;;;;;;6.47;3.60;;;;;;;-142.75;100.00;77800.78;4926680;28;20022;-66
2022/12/08 10:11:36;;;;;;;4.27;1.83;;;;;;;-142.75;100.00;77802.75;4929801;28;20034;-66
2022/12/08 10:14:10;;;;;;;3.37;1.73;;;;;;;-142.75;100.00;77814.56;4924720;28;20555;-65
2022/12/08 10:16:41;;;;;;;3.07;2.10;;;;;;;-142.75;100.00;77812.59;4922182;28;20621;-66
2022/12/08 10:19:16;;;;;;;3.43;1.50;;;;;;;-142.75;100.00;77822.44;4937550;28;20053;-66
2022/12/08 10:21:41;;;;;;;2.17;1.23;;;;;;;-142.75;100.00;77806.69;4936309;28;20034;-66
2022/12/08 10:24:50;;;;;;;3.05;1.92;;;;;;;-142.75;100.00;77794.88;4924357;28;20309;-66
2022/12/08 10:27:16;;;;;;;2.57;1.20;;;;;;;-142.75;100.00;77787.00;4906217;28;20081;-67
2022/12/08 10:29:41;;;;;;;2.45;1.50;;;;;;;-142.75;100.00;77783.06;4933486;28;20497;-66
2022/12/08 10:32:23;;;;;;;2.75;1.33;;;;;;;-142.75;100.00;77794.88;4929464;28;20348;-66
2022/12/08 10:35:12;;;;;;;3.50;1.30;;;;;;;-142.75;100.00;77751.56;4925754;28;20045;-68
2022/12/08 10:37:38;;;;;;;2.23;1.30;;;;;;;-142.75;100.00;77765.34;4903644;28;20046;-67
2022/12/08 10:40:16;;;;;;;1.45;0.80;;;;;;;-142.75;100.00;77775.19;4905231;28;20197;-66
2022/12/08 10:42:49;;;;;;;3.40;1.30;;;;;;;-142.75;100.00;77759.44;4920226;28;20618;-67
2022/12/08 10:45:26;;;;;;;2.93;1.30;;;;;;;-142.75;100.00;77741.72;4934025;28;20022;-66
2022/12/08 10:48:13;;;;;;;2.53;1.30;;;;;;;-142.75;100.00;77731.88;4930768;28;20148;-65
2022/12/08 10:50:47;;;;;;;2.78;1.27;;;;;;;-142.75;100.00;77739.75;4948173;28;20026;-67
2022/12/08 10:53:22;;;;;;;2.37;1.63;;;;;;;-142.75;100.00;77727.94;4930202;28;20033;-67
2022/12/08 10:56:05;;;;;;;2.93;1.63;;;;;;;-142.75;100.00;77708.22;4927637;28;20116;-67
2022/12/08 10:58:39;;;;;;;3.53;1.70;;;;;;;-142.75;100.00;77708.22;4923988;28;20029;-67
2022/12/08 11:01:09;;;;;;;5.37;1.63;;;;;;;-142.75;100.00;77692.47;4931134;28;20562;-67
2022/12/08 11:03:43;;;;;;;3.83;1.20;;;;;;;-142.75;100.00;77702.31;4923356;28;20030;-66
2022/12/08 11:06:20;;;;;;;2.70;1.40;;;;;;;-142.75;100.00;77692.47;4923677;28;20047;-67
2022/12/08 11:09:26;;;;;;;5.00;1.95;;;;;;;-142.75;100.00;77696.41;4927465;28;20189;-67
2022/12/08 11:11:55;;;;;;;4.57;1.50;;;;;;;-142.75;100.00;77690.50;4913483;28;20056;-67
2022/12/08 11:14:25;;;;;;;4.30;1.70;;;;;;;-142.75;100.00;77686.56;4936049;28;20064;-67
2022/12/08 11:17:04;;;;;;;3.03;1.30;;;;;;;-142.75;100.00;77660.97;4934756;28;20061;-67
2022/12/08 11:19:29;;;;;;;2.93;1.13;;;;;;;-142.75;100.00;77688.53;4926841;28;20042;-67
2022/12/08 11:21:55;;;;;;;2.85;1.23;;;;;;;-142.75;100.00;77712.16;4933023;28;20364;-68
2022/12/08 11:24:22;;;;;;;3.60;1.80;;;;;;;-142.75;100.00;77700.34;4929423;28;20230;-66
2022/12/08 11:26:57;;;;;;;6.03;4.20;;;;;;;-142.75;100.00;77698.38;4942044;28;20026;-67
2022/12/08 11:29:22;;;;;;;6.47;4.47;;;;;;;-142.75;100.00;77712.16;4914695;28;20022;-67